createdAt,value
2023-04-09T00:01:09.632Z,11.47
2023-04-09T00:03:38.581Z,10.23
2023-04-09T00:06:07.007Z,9.60
2023-04-09T00:08:35.341Z,11.03
2023-04-09T00:11:04.973Z,10.37
2023-04-09T00:13:38.996Z,9.97
2023-04-09T00:16:07.978Z,10.60
2023-04-09T00:18:36.099Z,9.23
2023-04-09T00:21:03.915Z,9.10
2023-04-09T00:23:31.661Z,8.40
2023-04-09T00:25:59.437Z,8.53
2023-04-09T00:28:28.596Z,9.00
2023-04-09T00:30:57.121Z,9.37
2023-04-09T00:33:24.908Z,9.03
2023-04-09T00:35:52.784Z,9.93
2023-04-09T00:38:20.914Z,9.33
2023-04-09T00:40:50.006Z,9.30
2023-04-09T00:43:17.851Z,9.90
2023-04-09T00:45:47.076Z,9.33
2023-04-09T00:48:16.185Z,9.33
2023-04-09T00:50:44.014Z,9.23
2023-04-09T00:53:12.876Z,9.23
2023-04-09T00:55:41.954Z,7.87
2023-04-09T00:58:09.769Z,8.17
2023-04-09T01:00:37.798Z,9.10
2023-04-09T01:03:07.631Z,8.10
2023-04-09T01:05:42.295Z,7.80
2023-04-09T01:08:17.732Z,7.80
2023-04-09T01:11:00.233Z,7.30
2023-04-09T01:13:31.946Z,6.60
2023-04-09T01:16:02.809Z,6.67
2023-04-09T01:18:40.566Z,6.53
2023-04-09T01:21:13.006Z,7.23
2023-04-09T01:23:48.501Z,7.77
2023-04-09T01:26:24.646Z,7.57
2023-04-09T01:28:55.503Z,8.10
2023-04-09T01:31:29.153Z,7.37
2023-04-09T01:33:57.859Z,7.87
2023-04-09T01:36:27.244Z,7.93
2023-04-09T01:38:57.337Z,8.03
2023-04-09T01:41:26.931Z,7.13
2023-04-09T01:43:57.242Z,7.00
2023-04-09T01:46:27.174Z,7.00
2023-04-09T01:48:56.127Z,7.10
2023-04-09T01:51:24.166Z,6.50
2023-04-09T01:53:52.179Z,6.67
2023-04-09T01:56:21.137Z,6.30
2023-04-09T01:58:48.907Z,7.10
2023-04-09T02:01:25.103Z,6.83
2023-04-09T02:03:57.544Z,6.97
2023-04-09T02:06:32.386Z,7.47
2023-04-09T02:09:02.272Z,7.63
2023-04-09T02:11:31.627Z,8.13
2023-04-09T02:14:00.180Z,8.57
2023-04-09T02:16:29.695Z,7.70
2023-04-09T02:18:57.521Z,7.30
2023-04-09T02:21:26.894Z,6.70
2023-04-09T02:23:55.550Z,7.30
2023-04-09T02:26:23.997Z,7.40
2023-04-09T02:28:52.054Z,6.97
2023-04-09T02:31:20.022Z,7.07
2023-04-09T02:33:49.158Z,7.30
2023-04-09T02:36:16.958Z,7.10
2023-04-09T02:38:44.705Z,8.00
2023-04-09T02:41:12.474Z,7.60
2023-04-09T02:43:40.237Z,8.30
2023-04-09T02:46:08.330Z,7.90
2023-04-09T02:48:36.320Z,7.17
2023-04-09T02:51:08.188Z,8.33
2023-04-09T02:53:37.579Z,7.90
2023-04-09T02:56:05.755Z,6.87
2023-04-09T02:58:33.533Z,6.83
2023-04-09T03:01:01.325Z,5.87
2023-04-09T03:03:30.740Z,6.80
2023-04-09T03:05:58.636Z,6.07
2023-04-09T03:08:27.768Z,7.10
2023-04-09T03:10:55.559Z,6.60
2023-04-09T03:13:23.324Z,6.67
2023-04-09T03:15:52.855Z,6.40
2023-04-09T03:18:21.052Z,6.80
2023-04-09T03:20:49.509Z,6.97
2023-04-09T03:23:17.269Z,6.90
2023-04-09T03:25:46.344Z,6.30
2023-04-09T03:28:14.113Z,6.77
2023-04-09T03:30:45.613Z,7.30
2023-04-09T03:33:13.362Z,7.50
2023-04-09T03:35:41.104Z,7.63
2023-04-09T03:38:08.876Z,8.57
2023-04-09T03:40:36.639Z,8.37
2023-04-09T03:43:05.849Z,8.60
2023-04-09T03:45:33.601Z,8.97
2023-04-09T03:48:01.383Z,8.03
2023-04-09T03:50:29.171Z,7.93
2023-04-09T03:52:56.973Z,7.57
2023-04-09T03:55:25.177Z,7.30
2023-04-09T03:57:53.120Z,7.43
2023-04-09T04:00:22.306Z,7.63
2023-04-09T04:02:50.603Z,7.50
2023-04-09T04:05:18.525Z,7.70
2023-04-09T04:07:46.314Z,7.00
2023-04-09T04:10:14.369Z,7.57
2023-04-09T04:12:42.244Z,8.27
2023-04-09T04:15:10.614Z,7.90
2023-04-09T04:17:39.757Z,7.90
2023-04-09T04:20:08.645Z,8.10
2023-04-09T04:22:36.487Z,8.23
2023-04-09T04:25:04.835Z,7.17
2023-04-09T04:27:32.617Z,6.73
2023-04-09T04:30:01.952Z,6.70
2023-04-09T04:32:30.346Z,7.03
2023-04-09T04:34:59.414Z,6.63
2023-04-09T04:37:27.185Z,7.37
2023-04-09T04:39:54.930Z,7.13
2023-04-09T04:42:23.091Z,7.03
2023-04-09T04:44:50.853Z,8.33
2023-04-09T04:47:19.260Z,7.33
2023-04-09T04:49:47.378Z,7.00
2023-04-09T04:52:17.874Z,7.40
2023-04-09T04:54:45.896Z,7.80
2023-04-09T04:57:13.668Z,7.80
2023-04-09T04:59:41.903Z,7.37
2023-04-09T05:02:10.014Z,6.77
2023-04-09T05:04:37.845Z,6.77
2023-04-09T05:07:05.637Z,8.40
2023-04-09T05:09:34.752Z,7.83
2023-04-09T05:12:02.850Z,7.07
2023-04-09T05:14:30.745Z,8.00
2023-04-09T05:16:58.600Z,8.17
2023-04-09T05:19:26.518Z,7.27
2023-04-09T05:21:54.295Z,7.57
2023-04-09T05:24:22.039Z,7.93
2023-04-09T05:26:51.142Z,8.47
2023-04-09T05:29:18.912Z,8.87
2023-04-09T05:31:46.695Z,8.00
2023-04-09T05:34:14.477Z,7.37
2023-04-09T05:36:42.264Z,7.30
2023-04-09T05:39:10.819Z,7.47
2023-04-09T05:41:38.728Z,7.00
2023-04-09T05:44:08.055Z,7.67
2023-04-09T05:46:35.870Z,8.00
2023-04-09T05:49:03.651Z,9.40
2023-04-09T05:51:31.456Z,7.47
2023-04-09T05:54:00.362Z,8.70
2023-04-09T05:56:28.179Z,9.80
2023-04-09T05:58:56.067Z,9.10
2023-04-09T06:01:25.188Z,9.63
2023-04-09T06:03:55.261Z,10.03
2023-04-09T06:06:24.902Z,10.30
2023-04-09T06:08:52.698Z,9.67
2023-04-09T06:11:21.222Z,9.87
2023-04-09T06:13:49.038Z,9.53
2023-04-09T06:16:16.878Z,10.53
2023-04-09T06:18:49.480Z,9.20
2023-04-09T06:21:17.263Z,10.37
2023-04-09T06:23:44.985Z,9.37
2023-04-09T06:26:12.834Z,9.37
2023-04-09T06:28:40.861Z,9.07
2023-04-09T06:31:08.686Z,9.23
2023-04-09T06:33:36.518Z,9.93
2023-04-09T06:36:06.108Z,10.00
2023-04-09T06:38:33.927Z,9.80
2023-04-09T06:41:01.724Z,10.07
2023-04-09T06:43:29.492Z,9.27
2023-04-09T06:45:57.265Z,9.00
2023-04-09T06:48:25.206Z,10.33
2023-04-09T06:50:52.977Z,9.47
2023-04-09T06:53:22.072Z,9.97
2023-04-09T06:55:49.966Z,9.23
2023-04-09T06:58:17.770Z,9.53
2023-04-09T07:00:45.639Z,10.70
2023-04-09T07:03:13.634Z,9.20
2023-04-09T07:05:41.462Z,9.80
2023-04-09T07:08:09.214Z,10.40
2023-04-09T07:10:38.323Z,8.83
2023-04-09T07:13:06.521Z,8.93
2023-04-09T07:15:34.376Z,8.90
2023-04-09T07:18:02.206Z,9.77
2023-04-09T07:20:29.966Z,9.27
2023-04-09T07:22:57.760Z,9.93
2023-04-09T07:25:25.548Z,9.37
2023-04-09T07:27:54.678Z,9.33
2023-04-09T07:30:22.555Z,9.63
2023-04-09T07:32:50.456Z,10.40
2023-04-09T07:35:18.520Z,9.10
2023-04-09T07:37:46.301Z,8.60
2023-04-09T07:40:14.286Z,10.43
2023-04-09T07:42:42.397Z,9.87
2023-04-09T07:45:11.629Z,8.40
2023-04-09T07:47:40.697Z,8.13
2023-04-09T07:50:09.887Z,8.17
2023-04-09T07:52:37.644Z,8.70
2023-04-09T07:55:06.256Z,8.00
2023-04-09T07:57:34.194Z,8.27
2023-04-09T08:00:02.266Z,8.20
2023-04-09T08:02:31.804Z,7.77
2023-04-09T08:04:59.960Z,7.80
2023-04-09T08:07:27.956Z,8.23
2023-04-09T08:09:56.009Z,8.63
2023-04-09T08:12:23.774Z,8.30
2023-04-09T08:14:51.583Z,7.57
2023-04-09T08:17:19.341Z,6.80
2023-04-09T08:19:49.416Z,7.40
2023-04-09T08:22:17.182Z,8.13
2023-04-09T08:24:44.955Z,9.27
2023-04-09T08:27:12.700Z,8.03
2023-04-09T08:29:42.464Z,8.27
2023-04-09T08:32:10.516Z,7.67
2023-04-09T08:34:38.458Z,9.40
2023-04-09T08:37:07.911Z,8.90
2023-04-09T08:39:36.191Z,7.77
2023-04-09T08:42:06.612Z,8.17
2023-04-09T08:44:34.442Z,8.20
2023-04-09T08:47:02.710Z,7.70
2023-04-09T08:49:30.512Z,7.47
2023-04-09T08:51:58.366Z,6.50
2023-04-09T08:54:27.461Z,7.63
2023-04-09T08:56:57.435Z,8.53
2023-04-09T08:59:25.250Z,7.73
2023-04-09T09:02:08.375Z,6.93
2023-04-09T09:04:46.961Z,6.37
2023-04-09T09:07:15.465Z,7.00
2023-04-09T09:09:55.613Z,7.13
2023-04-09T09:12:34.390Z,7.53
2023-04-09T09:15:02.861Z,6.80
2023-04-09T09:17:31.138Z,6.63
2023-04-09T09:19:59.063Z,7.60
2023-04-09T09:22:26.943Z,7.27
2023-04-09T09:24:57.285Z,6.87
2023-04-09T09:27:39.133Z,6.80
2023-04-09T09:30:08.528Z,7.60
2023-04-09T09:32:36.619Z,6.97
2023-04-09T09:35:06.299Z,6.80
2023-04-09T09:37:34.881Z,7.67
2023-04-09T09:40:04.617Z,7.60
2023-04-09T09:42:32.954Z,6.77
2023-04-09T09:45:01.800Z,7.27
2023-04-09T09:47:31.921Z,6.93
2023-04-09T09:49:59.770Z,6.73
2023-04-09T09:52:27.674Z,6.23
2023-04-09T09:54:58.781Z,6.23
2023-04-09T09:57:31.550Z,6.20
2023-04-09T10:00:03.910Z,6.07
2023-04-09T10:02:39.653Z,5.90
2023-04-09T10:05:09.836Z,6.87
2023-04-09T10:07:38.634Z,6.53
2023-04-09T10:10:08.218Z,7.70
2023-04-09T10:12:37.382Z,6.40
2023-04-09T10:15:06.500Z,6.10
2023-04-09T10:17:34.278Z,6.00
2023-04-09T10:20:11.172Z,6.27
2023-04-09T10:22:39.938Z,6.00
2023-04-09T10:25:08.559Z,5.93
2023-04-09T10:27:37.802Z,5.57
2023-04-09T10:30:10.217Z,5.53
2023-04-09T10:32:38.131Z,5.30
2023-04-09T10:35:06.850Z,4.90
2023-04-09T10:37:36.910Z,5.47
2023-04-09T10:40:05.368Z,4.43
2023-04-09T10:42:37.067Z,5.10
2023-04-09T10:45:10.700Z,4.90
2023-04-09T10:47:42.382Z,5.00
2023-04-09T10:50:21.596Z,4.77
2023-04-09T10:52:53.891Z,4.33
2023-04-09T10:55:32.047Z,4.93
2023-04-09T10:57:59.916Z,4.13
2023-04-09T11:00:29.066Z,5.30
2023-04-09T11:03:14.218Z,4.80
2023-04-09T11:05:43.796Z,5.10
2023-04-09T11:08:12.431Z,5.77
2023-04-09T11:10:41.897Z,4.87
2023-04-09T11:13:13.603Z,4.50
2023-04-09T11:15:43.385Z,4.37
2023-04-09T11:18:14.758Z,4.60
2023-04-09T11:20:42.754Z,4.10
2023-04-09T11:23:14.250Z,3.97
2023-04-09T11:25:42.062Z,4.20
2023-04-09T11:28:10.027Z,4.70
2023-04-09T11:30:38.494Z,4.13
2023-04-09T11:33:08.548Z,3.60
2023-04-09T11:35:37.466Z,3.80
2023-04-09T11:38:08.812Z,4.60
2023-04-09T11:40:37.148Z,4.10
2023-04-09T11:43:04.893Z,4.27
2023-04-09T11:45:33.256Z,4.10
2023-04-09T11:48:01.137Z,3.93
2023-04-09T11:50:30.641Z,4.00
2023-04-09T11:52:58.949Z,3.80
2023-04-09T11:55:27.651Z,3.90
2023-04-09T11:57:58.533Z,4.30
2023-04-09T12:00:26.387Z,3.50
2023-04-09T12:03:01.038Z,4.17
2023-04-09T12:05:32.084Z,4.07
2023-04-09T12:08:01.517Z,3.53
2023-04-09T12:10:31.487Z,3.60
2023-04-09T12:13:03.941Z,3.87
2023-04-09T12:15:36.839Z,3.70
2023-04-09T12:18:05.445Z,4.20
2023-04-09T12:20:36.553Z,3.97
2023-04-09T12:23:05.989Z,3.50
2023-04-09T12:25:35.498Z,3.53
2023-04-09T12:28:03.937Z,3.57
2023-04-09T12:30:31.719Z,3.23
2023-04-09T12:32:59.972Z,3.40
2023-04-09T12:35:28.176Z,3.73
2023-04-09T12:37:57.458Z,3.30
2023-04-09T12:40:25.232Z,3.50
2023-04-09T12:42:53.706Z,3.40
2023-04-09T12:45:21.763Z,3.70
2023-04-09T12:47:49.848Z,4.50
2023-04-09T12:50:17.824Z,3.47
2023-04-09T12:52:46.312Z,4.53
2023-04-09T12:55:15.976Z,3.87
2023-04-09T12:57:45.202Z,3.73
2023-04-09T13:00:14.096Z,4.50
2023-04-09T13:02:42.081Z,4.20
2023-04-09T13:05:10.415Z,4.50
2023-04-09T13:07:38.761Z,4.23
2023-04-09T13:10:07.934Z,4.70
2023-04-09T13:12:37.276Z,4.53
2023-04-09T13:15:05.762Z,4.00
2023-04-09T13:17:33.574Z,4.37
2023-04-09T13:20:01.603Z,4.57
2023-04-09T13:22:29.578Z,4.27
2023-04-09T13:24:57.395Z,4.20
2023-04-09T13:27:25.364Z,4.60
2023-04-09T13:29:54.514Z,4.80
2023-04-09T13:32:24.021Z,5.27
2023-04-09T13:34:53.614Z,4.90
2023-04-09T13:37:21.393Z,5.10
2023-04-09T13:39:49.158Z,4.80
2023-04-09T13:42:17.017Z,4.90
2023-04-09T13:44:45.513Z,4.73
2023-04-09T13:47:15.833Z,4.50
2023-04-09T13:49:44.530Z,4.93
2023-04-09T13:52:12.804Z,4.60
2023-04-09T13:54:41.041Z,4.77
2023-04-09T13:57:08.822Z,4.63
2023-04-09T13:59:37.940Z,4.63
2023-04-09T14:02:05.858Z,4.00
2023-04-09T14:04:35.097Z,3.93
2023-04-09T14:07:02.952Z,3.93
2023-04-09T14:09:31.023Z,4.83
2023-04-09T14:11:58.802Z,4.37
2023-04-09T14:14:26.549Z,3.93
2023-04-09T14:16:55.267Z,3.53
2023-04-09T14:19:24.033Z,4.30
2023-04-09T14:21:54.026Z,5.00
2023-04-09T14:24:23.062Z,4.13
2023-04-09T14:26:52.968Z,4.97
2023-04-09T14:29:20.896Z,4.80
2023-04-09T14:31:48.784Z,5.10
2023-04-09T14:34:16.610Z,3.90
2023-04-09T14:36:44.415Z,5.23
2023-04-09T14:39:13.511Z,4.53
2023-04-09T14:41:41.477Z,4.00
2023-04-09T14:44:09.258Z,4.30
2023-04-09T14:46:37.496Z,4.50
2023-04-09T14:49:05.300Z,4.10
2023-04-09T14:51:33.104Z,4.33
2023-04-09T14:54:01.526Z,3.57
2023-04-09T14:56:30.676Z,4.30
2023-04-09T14:58:58.542Z,4.73
2023-04-09T15:01:27.663Z,3.93
2023-04-09T15:03:55.655Z,3.80
2023-04-09T15:06:23.693Z,3.60
2023-04-09T15:08:51.761Z,3.83
2023-04-09T15:11:22.650Z,4.70
2023-04-09T15:13:52.877Z,3.83
2023-04-09T15:16:24.683Z,3.90
2023-04-09T15:18:55.322Z,3.83
2023-04-09T15:21:23.557Z,3.80
2023-04-09T15:23:51.915Z,4.27
2023-04-09T15:26:19.728Z,4.27
2023-04-09T15:28:47.531Z,4.40
2023-04-09T15:31:16.664Z,4.67
2023-04-09T15:33:44.649Z,4.67
2023-04-09T15:36:12.499Z,5.03
2023-04-09T15:38:40.342Z,4.37
2023-04-09T15:41:08.128Z,4.07
2023-04-09T15:43:36.014Z,4.43
2023-04-09T15:46:09.301Z,4.30
2023-04-09T15:48:38.532Z,4.10
2023-04-09T15:51:07.048Z,3.83
2023-04-09T15:53:34.828Z,4.37
2023-04-09T15:56:03.100Z,4.20
2023-04-09T15:58:30.882Z,5.10
2023-04-09T16:00:58.696Z,4.53
2023-04-09T16:03:26.674Z,5.23
2023-04-09T16:05:56.245Z,4.63
2023-04-09T16:08:23.978Z,5.40
2023-04-09T16:10:52.770Z,6.00
2023-04-09T16:13:20.543Z,5.10
2023-04-09T16:15:49.283Z,5.23
2023-04-09T16:18:17.058Z,5.47
2023-04-09T16:20:44.839Z,5.23
2023-04-09T16:23:13.995Z,5.17
2023-04-09T16:25:41.777Z,5.43
2023-04-09T16:28:09.530Z,5.57
2023-04-09T16:30:37.574Z,5.47
2023-04-09T16:33:05.298Z,4.83
2023-04-09T16:35:33.053Z,5.00
2023-04-09T16:38:00.891Z,4.90
2023-04-09T16:40:30.305Z,5.03
2023-04-09T16:42:58.110Z,5.13
2023-04-09T16:45:25.876Z,5.10
2023-04-09T16:47:54.485Z,5.00
2023-04-09T16:50:22.478Z,5.63
2023-04-09T16:52:50.310Z,4.63
2023-04-09T16:55:18.397Z,5.13
2023-04-09T16:57:47.457Z,5.63
2023-04-09T17:00:17.292Z,5.50
2023-04-09T17:02:45.730Z,5.70
2023-04-09T17:05:13.822Z,5.40
2023-04-09T17:07:43.040Z,5.37
2023-04-09T17:10:11.400Z,5.63
2023-04-09T17:12:39.667Z,5.70
2023-04-09T17:15:10.515Z,5.63
2023-04-09T17:17:38.493Z,5.17
2023-04-09T17:20:07.592Z,5.23
2023-04-09T17:22:36.140Z,5.47
2023-04-09T17:25:04.676Z,5.20
2023-04-09T17:27:32.531Z,5.23
2023-04-09T17:30:00.304Z,5.33
2023-04-09T17:32:29.579Z,5.10
2023-04-09T17:34:59.344Z,5.63
2023-04-09T17:37:29.257Z,4.97
2023-04-09T17:39:57.007Z,5.67
2023-04-09T17:42:24.843Z,5.80
2023-04-09T17:44:53.448Z,5.90
2023-04-09T17:47:21.408Z,6.07
2023-04-09T17:49:50.569Z,5.83
2023-04-09T17:52:18.351Z,5.80
2023-04-09T17:54:46.578Z,6.03
2023-04-09T17:57:15.432Z,6.63
2023-04-09T17:59:43.353Z,5.77
2023-04-09T18:02:11.462Z,5.80
2023-04-09T18:04:39.517Z,5.07
2023-04-09T18:07:08.774Z,6.20
2023-04-09T18:09:38.943Z,5.43
2023-04-09T18:12:06.728Z,6.30
2023-04-09T18:14:34.598Z,4.83
2023-04-09T18:17:02.415Z,5.60
2023-04-09T18:19:30.174Z,5.00
2023-04-09T18:21:57.965Z,5.53
2023-04-09T18:24:28.246Z,5.07
2023-04-09T18:26:57.297Z,5.77
2023-04-09T18:29:27.083Z,5.93
2023-04-09T18:31:55.642Z,5.97
2023-04-09T18:34:23.647Z,6.73
2023-04-09T18:36:51.465Z,6.07
2023-04-09T18:39:19.539Z,5.77
2023-04-09T18:41:48.672Z,5.70
2023-04-09T18:44:17.076Z,6.20
2023-04-09T18:46:44.878Z,6.27
2023-04-09T18:49:12.671Z,6.17
2023-04-09T18:51:40.625Z,5.77
2023-04-09T18:54:08.411Z,5.50
2023-04-09T18:56:36.389Z,5.37
2023-04-09T18:59:05.646Z,5.53
2023-04-09T19:01:33.461Z,5.87
2023-04-09T19:04:01.451Z,5.67
2023-04-09T19:06:29.811Z,5.37
2023-04-09T19:08:58.865Z,5.60
2023-04-09T19:11:26.749Z,5.80
2023-04-09T19:13:54.644Z,6.30
2023-04-09T19:16:23.808Z,6.67
2023-04-09T19:18:51.809Z,6.00
2023-04-09T19:21:19.634Z,6.03
2023-04-09T19:23:47.532Z,5.33
2023-04-09T19:26:15.311Z,5.70
2023-04-09T19:28:43.074Z,6.23
2023-04-09T19:31:12.540Z,6.33
2023-04-09T19:33:41.682Z,6.10
2023-04-09T19:36:09.494Z,6.17
2023-04-09T19:38:37.256Z,6.80
2023-04-09T19:41:05.361Z,6.70
2023-04-09T19:43:33.173Z,6.47
2023-04-09T19:46:05.270Z,6.57
2023-04-09T19:48:33.169Z,6.60
2023-04-09T19:51:02.904Z,7.37
2023-04-09T19:53:31.213Z,7.73
2023-04-09T19:55:59.156Z,7.63
2023-04-09T19:58:27.233Z,9.17
2023-04-09T20:00:55.118Z,9.50
2023-04-09T20:03:23.077Z,8.50
2023-04-09T20:05:51.625Z,8.50
2023-04-09T20:08:20.719Z,8.07
2023-04-09T20:10:48.478Z,7.83
2023-04-09T20:13:16.239Z,8.63
2023-04-09T20:15:44.122Z,8.13
2023-04-09T20:18:12.089Z,7.67
2023-04-09T20:20:40.418Z,7.53
2023-04-09T20:23:08.202Z,8.00
2023-04-09T20:25:37.292Z,7.47
2023-04-09T20:28:05.224Z,8.13
2023-04-09T20:30:33.428Z,8.57
2023-04-09T20:33:01.283Z,8.17
2023-04-09T20:35:29.134Z,7.87
2023-04-09T20:37:56.914Z,7.90
2023-04-09T20:40:24.947Z,7.30
2023-04-09T20:42:54.055Z,8.57
2023-04-09T20:45:21.809Z,8.20
2023-04-09T20:47:50.575Z,8.03
2023-04-09T20:50:19.397Z,8.23
2023-04-09T20:52:47.397Z,8.70
2023-04-09T20:55:15.407Z,8.30
2023-04-09T20:57:43.774Z,8.30
2023-04-09T21:00:14.491Z,8.33
2023-04-09T21:02:42.374Z,8.70
2023-04-09T21:05:21.847Z,9.23
2023-04-09T21:07:50.567Z,8.40
2023-04-09T21:10:18.494Z,8.30
2023-04-09T21:12:46.254Z,7.90
2023-04-09T21:15:15.763Z,9.17
2023-04-09T21:17:43.578Z,8.73
2023-04-09T21:20:12.155Z,8.60
2023-04-09T21:22:39.930Z,8.20
2023-04-09T21:25:08.362Z,8.07
2023-04-09T21:27:36.109Z,7.93
2023-04-09T21:30:04.414Z,8.40
2023-04-09T21:32:33.547Z,8.20
2023-04-09T21:35:01.302Z,8.30
2023-04-09T21:37:29.754Z,7.57
2023-04-09T21:39:57.502Z,7.27
2023-04-09T21:42:25.487Z,7.80
2023-04-09T21:44:53.206Z,7.43
2023-04-09T21:47:21.011Z,7.17
2023-04-09T21:49:50.203Z,6.83
2023-04-09T21:52:18.096Z,6.73
2023-04-09T21:54:46.376Z,7.10
2023-04-09T21:57:14.310Z,6.80
2023-04-09T21:59:42.118Z,7.03
2023-04-09T22:02:10.342Z,7.20
2023-04-09T22:04:42.242Z,7.37
2023-04-09T22:07:12.384Z,8.10
2023-04-09T22:09:40.242Z,7.17
2023-04-09T22:12:08.444Z,6.90
2023-04-09T22:14:36.226Z,7.67
2023-04-09T22:17:04.088Z,7.10
2023-04-09T22:19:32.727Z,8.00
2023-04-09T22:22:01.002Z,7.10
2023-04-09T22:24:30.438Z,7.20
2023-04-09T22:26:59.740Z,7.43
2023-04-09T22:29:27.812Z,7.73
2023-04-09T22:31:55.844Z,8.30
2023-04-09T22:34:23.751Z,7.10
2023-04-09T22:36:51.611Z,7.37
2023-04-09T22:39:19.359Z,7.50
2023-04-09T22:41:48.475Z,7.50
2023-04-09T22:44:16.416Z,7.60
2023-04-09T22:46:44.214Z,8.10
2023-04-09T22:49:12.225Z,7.70
2023-04-09T22:51:41.662Z,7.60
2023-04-09T22:54:09.754Z,7.10
2023-04-09T22:56:37.609Z,7.10
2023-04-09T22:59:07.027Z,7.77
2023-04-09T23:01:34.990Z,7.53
2023-04-09T23:04:02.894Z,8.40
2023-04-09T23:06:31.055Z,7.70
2023-04-09T23:08:59.707Z,8.37
2023-04-09T23:11:28.044Z,8.40
2023-04-09T23:13:55.882Z,8.07
2023-04-09T23:16:25.047Z,8.30
2023-04-09T23:18:53.081Z,7.20
2023-04-09T23:21:21.212Z,6.87
2023-04-09T23:23:48.993Z,7.40
2023-04-09T23:26:16.775Z,7.70
2023-04-09T23:28:44.503Z,7.57
2023-04-09T23:31:12.325Z,7.20
2023-04-09T23:33:41.460Z,7.03
2023-04-09T23:36:09.796Z,6.80
2023-04-09T23:38:40.019Z,7.40
2023-04-09T23:41:07.918Z,6.97
2023-04-09T23:43:35.912Z,7.53
2023-04-09T23:46:03.700Z,7.27
2023-04-09T23:48:31.464Z,7.00
2023-04-09T23:51:00.593Z,6.77
2023-04-09T23:53:28.337Z,8.53
2023-04-09T23:55:56.124Z,8.20
2023-04-09T23:58:23.945Z,7.77
